Time;durP1;ratioP1;P1;durP2;ratioP2;P2;SDS_P1;SDS_P2;PMS_P1;PMS_P2;Temp;Humidity;BMP_temperature;BMP_pressure;BME280_temperature;BME280_humidity;BME280_pressure;Samples;Min_cycle;Max_cycle;Signal;HPM_P1;HPM_P2
2022/05/25 02:29:15;;;;;;;9.97;9.40;;;15.70;99.90;;;;;;4988367;23;20602;-77
2022/05/25 02:31:47;;;;;;;9.90;9.40;;;15.60;99.90;;;;;;4953491;28;20456;-77
2022/05/25 02:34:17;;;;;;;10.30;9.80;;;15.60;99.90;;;;;;4957043;28;20531;-78
2022/05/25 02:36:46;;;;;;;9.97;9.57;;;15.60;99.90;;;;;;4958811;28;20503;-80
2022/05/25 02:39:13;;;;;;;9.93;9.53;;;15.60;99.90;;;;;;4952964;29;20457;-78
2022/05/25 02:41:46;;;;;;;10.40;9.93;;;15.60;99.90;;;;;;4952787;29;20460;-79
2022/05/25 02:44:14;;;;;;;10.27;9.87;;;15.60;99.90;;;;;;4952496;29;20827;-80
2022/05/25 02:46:41;;;;;;;10.30;9.70;;;15.60;99.90;;;;;;4952694;29;20456;-79
2022/05/25 02:49:08;;;;;;;9.47;9.17;;;15.50;99.90;;;;;;4952484;29;20465;-77
2022/05/25 02:51:35;;;;;;;10.00;9.60;;;15.50;99.90;;;;;;4952724;29;20535;-77
2022/05/25 02:54:02;;;;;;;10.60;10.00;;;15.50;99.90;;;;;;4969285;28;20456;-77
2022/05/25 02:56:29;;;;;;;10.47;9.93;;;15.40;99.90;;;;;;4971378;28;20953;-78
2022/05/25 02:58:55;;;;;;;10.33;9.50;;;15.40;99.90;;;;;;4972108;28;20494;-78
2022/05/25 03:01:24;;;;;;;9.87;9.37;;;15.40;99.90;;;;;;4972320;28;20455;-79
2022/05/25 03:03:51;;;;;;;10.07;9.67;;;15.40;99.90;;;;;;4971836;28;20741;-79
2022/05/25 03:06:18;;;;;;;9.67;9.33;;;15.40;99.90;;;;;;4971272;28;20957;-78
2022/05/25 03:08:45;;;;;;;10.37;9.87;;;15.40;99.90;;;;;;4971922;28;20451;-78
2022/05/25 03:11:12;;;;;;;10.37;9.60;;;15.40;99.90;;;;;;4971738;28;20562;-77
2022/05/25 03:13:39;;;;;;;10.07;9.33;;;15.30;99.90;;;;;;4971882;28;20463;-77
2022/05/25 03:16:08;;;;;;;10.00;9.40;;;15.30;99.90;;;;;;4971651;28;20702;-78
2022/05/25 03:18:36;;;;;;;10.47;10.17;;;15.30;99.90;;;;;;4971541;28;20491;-79
2022/05/25 03:21:03;;;;;;;9.87;9.47;;;15.20;99.90;;;;;;4973320;28;20458;-78
2022/05/25 03:23:29;;;;;;;9.77;9.07;;;15.20;99.90;;;;;;4975740;28;20452;-76
2022/05/25 03:25:56;;;;;;;10.47;10.07;;;15.20;99.90;;;;;;4975495;28;20539;-76
2022/05/25 03:28:23;;;;;;;10.07;9.63;;;15.20;99.90;;;;;;4975111;28;20479;-77
2022/05/25 03:30:49;;;;;;;9.63;9.33;;;15.20;99.90;;;;;;4975288;28;20501;-76
2022/05/25 03:33:16;;;;;;;9.33;8.93;;;15.20;99.90;;;;;;4975412;28;20461;-76
2022/05/25 03:35:45;;;;;;;8.60;8.30;;;15.20;99.90;;;;;;4955931;28;20903;-76
2022/05/25 03:38:12;;;;;;;8.93;8.60;;;15.20;99.90;;;;;;4940413;29;20497;-76
2022/05/25 03:40:40;;;;;;;10.13;9.73;;;15.20;99.90;;;;;;4936539;29;20469;-75
2022/05/25 03:43:07;;;;;;;9.73;9.33;;;15.20;99.90;;;;;;4936648;29;21014;-76
2022/05/25 03:45:34;;;;;;;10.70;10.27;;;15.20;99.90;;;;;;4936685;29;20457;-76
2022/05/25 03:48:00;;;;;;;9.27;8.97;;;15.20;99.90;;;;;;4936974;29;20460;-75
2022/05/25 03:50:27;;;;;;;10.00;9.60;;;15.20;99.90;;;;;;4936446;29;20461;-76
2022/05/25 03:52:55;;;;;;;10.03;9.53;;;15.10;99.90;;;;;;4952429;28;20451;-75
2022/05/25 03:55:22;;;;;;;10.50;10.10;;;15.10;99.90;;;;;;4975276;28;20459;-75
2022/05/25 03:57:49;;;;;;;10.30;9.90;;;15.20;99.90;;;;;;4974835;28;20487;-75
2022/05/25 04:00:17;;;;;;;10.23;9.83;;;15.20;99.90;;;;;;4975072;28;20460;-75
2022/05/25 04:02:44;;;;;;;10.43;9.80;;;15.10;99.90;;;;;;4974710;28;20463;-76
2022/05/25 04:05:12;;;;;;;10.63;9.97;;;15.10;99.90;;;;;;4975174;28;20474;-77
2022/05/25 04:07:42;;;;;;;9.50;9.00;;;15.10;99.90;;;;;;4974731;28;20491;-77
2022/05/25 04:10:13;;;;;;;10.77;10.00;;;15.20;99.90;;;;;;4974766;28;20463;-76
2022/05/25 04:12:40;;;;;;;10.50;10.07;;;15.30;99.90;;;;;;4974850;28;20451;-76
2022/05/25 04:15:08;;;;;;;10.77;10.37;;;15.20;99.90;;;;;;4974585;28;20538;-76
2022/05/25 04:17:35;;;;;;;9.83;9.43;;;15.20;99.90;;;;;;4974187;28;20488;-76
2022/05/25 04:20:02;;;;;;;10.37;9.77;;;15.30;99.90;;;;;;4974558;28;20463;-76
2022/05/25 04:22:29;;;;;;;10.13;9.80;;;15.30;99.90;;;;;;4974768;28;20467;-77
2022/05/25 04:24:56;;;;;;;10.57;9.87;;;15.20;99.90;;;;;;4974674;28;20451;-77
2022/05/25 04:27:24;;;;;;;10.27;9.53;;;15.20;99.90;;;;;;4973867;28;20520;-76
2022/05/25 04:29:51;;;;;;;9.77;9.17;;;15.20;99.90;;;;;;4974491;28;20455;-75
2022/05/25 04:32:18;;;;;;;9.93;9.23;;;15.30;99.90;;;;;;4974446;28;20518;-75
2022/05/25 04:34:44;;;;;;;10.13;9.60;;;15.20;99.90;;;;;;4974292;28;20534;-75
2022/05/25 04:39:56;;;;;;;10.30;9.80;;;15.30;99.90;;;;;;4936575;29;20428;-83
2022/05/25 04:42:28;;;;;;;9.50;9.10;;;15.40;99.90;;;;;;4936417;29;20968;-81
2022/05/25 04:44:59;;;;;;;9.70;9.20;;;15.50;99.90;;;;;;4937115;29;20472;-75
2022/05/25 04:47:26;;;;;;;10.57;10.07;;;15.50;99.90;;;;;;4935862;29;20457;-75
2022/05/25 04:49:53;;;;;;;9.90;9.60;;;15.60;99.90;;;;;;4935279;29;20595;-75
2022/05/25 04:52:19;;;;;;;9.60;9.23;;;15.70;99.90;;;;;;4942066;28;20875;-76
2022/05/25 04:54:46;;;;;;;9.87;9.47;;;15.90;99.90;;;;;;4973779;28;20871;-78
2022/05/25 04:57:21;;;;;;;10.07;9.50;;;16.00;99.90;;;;;;4973934;28;20451;-77
2022/05/25 04:59:50;;;;;;;9.57;9.27;;;16.00;99.90;;;;;;4973583;28;20632;-77
2022/05/25 05:02:17;;;;;;;9.73;9.40;;;16.10;99.90;;;;;;4973625;28;21066;-74
2022/05/25 05:04:45;;;;;;;10.00;9.60;;;16.10;99.90;;;;;;4974160;28;20456;-75
2022/05/25 05:10:01;;;;;;;10.00;9.60;;;16.20;99.90;;;;;;4943413;28;20453;-74
2022/05/25 05:12:27;;;;;;;10.10;9.70;;;16.20;99.90;;;;;;4951859;29;20496;-74
2022/05/25 05:14:55;;;;;;;10.57;10.00;;;16.20;99.90;;;;;;4953729;29;20516;-74
2022/05/25 05:17:22;;;;;;;10.47;10.00;;;16.20;99.90;;;;;;4953838;29;20464;-76
2022/05/25 05:19:49;;;;;;;9.37;8.97;;;16.20;99.90;;;;;;4953829;29;20488;-76
2022/05/25 05:22:16;;;;;;;10.17;9.83;;;16.20;99.90;;;;;;4951954;29;20457;-75
2022/05/25 05:24:42;;;;;;;10.53;10.10;;;16.30;99.90;;;;;;4953882;29;20475;-76
2022/05/25 05:27:10;;;;;;;10.13;9.73;;;16.30;99.90;;;;;;4953175;29;20540;-74
2022/05/25 05:29:36;;;;;;;10.27;9.87;;;16.30;99.90;;;;;;4953729;29;20507;-74
2022/05/25 05:32:05;;;;;;;9.97;9.57;;;16.30;99.90;;;;;;4953634;29;20460;-75
2022/05/25 05:34:32;;;;;;;10.70;10.00;;;16.40;99.90;;;;;;4953568;29;20548;-75
2022/05/25 05:37:02;;;;;;;10.33;9.90;;;16.60;99.90;;;;;;4953706;29;20867;-76
2022/05/25 05:39:33;;;;;;;11.13;10.63;;;17.00;99.90;;;;;;4953706;29;20496;-74
2022/05/25 05:42:04;;;;;;;11.00;10.30;;;17.30;99.80;;;;;;4953265;29;20531;-74
2022/05/25 05:44:34;;;;;;;9.97;9.57;;;17.60;99.60;;;;;;4953075;28;20547;-74
2022/05/25 05:47:06;;;;;;;10.80;10.20;;;18.10;98.10;;;;;;4953417;29;20452;-74
2022/05/25 05:49:32;;;;;;;10.53;10.13;;;18.30;97.70;;;;;;4953217;29;20452;-73
2022/05/25 05:52:00;;;;;;;9.90;9.40;;;18.10;97.00;;;;;;4951049;28;20464;-73
2022/05/25 05:54:28;;;;;;;9.93;9.37;;;17.80;97.40;;;;;;4972591;28;20497;-82
2022/05/25 05:56:55;;;;;;;10.30;9.90;;;17.50;98.40;;;;;;4972579;28;20448;-73
2022/05/25 05:59:21;;;;;;;10.57;9.97;;;17.50;98.50;;;;;;4972257;28;20492;-72
2022/05/25 06:01:48;;;;;;;10.43;10.03;;;17.60;98.30;;;;;;4972269;28;20455;-73
2022/05/25 06:04:16;;;;;;;10.20;9.70;;;18.00;97.70;;;;;;4972323;28;20879;-77
2022/05/25 06:06:43;;;;;;;10.67;10.27;;;19.10;96.50;;;;;;4972429;28;20458;-73
2022/05/25 06:09:10;;;;;;;10.77;10.30;;;20.20;94.20;;;;;;4972460;28;20515;-73
2022/05/25 06:11:40;;;;;;;11.30;10.80;;;20.50;92.50;;;;;;4972227;28;20455;-73
2022/05/25 06:14:06;;;;;;;11.53;11.03;;;20.60;92.70;;;;;;4971977;28;20451;-73
2022/05/25 06:19:29;;;;;;;11.13;10.73;;;21.70;90.50;;;;;;4972227;28;20483;-72
2022/05/25 06:21:58;;;;;;;10.97;10.57;;;22.00;88.80;;;;;;4972014;28;20472;-72
2022/05/25 06:24:25;;;;;;;12.00;11.50;;;22.30;88.20;;;;;;4971857;28;20447;-72
2022/05/25 06:26:51;;;;;;;11.83;11.23;;;22.80;87.00;;;;;;4971476;28;20526;-72
2022/05/25 06:29:19;;;;;;;11.10;10.60;;;23.40;82.70;;;;;;4952438;29;20811;-72
2022/05/25 06:31:46;;;;;;;12.03;11.40;;;23.50;81.90;;;;;;4952361;29;20547;-72
2022/05/25 06:34:12;;;;;;;11.30;10.70;;;23.00;83.10;;;;;;4952241;29;20445;-73
2022/05/25 06:36:41;;;;;;;11.37;10.97;;;22.80;83.40;;;;;;4951855;29;20453;-73
2022/05/25 06:39:09;;;;;;;11.63;11.13;;;22.60;83.30;;;;;;4951843;29;20500;-73
2022/05/25 06:41:36;;;;;;;10.70;10.30;;;22.60;83.20;;;;;;4952210;29;20523;-73
2022/05/25 06:44:02;;;;;;;11.53;11.13;;;22.80;83.60;;;;;;4951967;29;20516;-72
2022/05/25 06:46:29;;;;;;;11.40;10.80;;;22.50;84.00;;;;;;4951942;29;20468;-73
2022/05/25 06:48:58;;;;;;;12.60;11.90;;;23.20;83.00;;;;;;4952387;29;20456;-72
2022/05/25 06:51:26;;;;;;;12.47;11.90;;;23.30;82.30;;;;;;4952076;29;20460;-72
2022/05/25 06:53:54;;;;;;;10.47;10.07;;;23.10;81.50;;;;;;4952023;29;20453;-72
2022/05/25 06:56:22;;;;;;;11.97;11.37;;;23.20;80.10;;;;;;4950951;29;20468;-73
2022/05/25 06:58:49;;;;;;;11.63;11.23;;;23.60;80.40;;;;;;4951940;29;20527;-73
2022/05/25 07:01:16;;;;;;;11.87;11.47;;;24.30;77.70;;;;;;4951955;29;20911;-72
2022/05/25 07:03:43;;;;;;;11.70;11.20;;;24.50;77.70;;;;;;4952617;29;20456;-73
2022/05/25 07:06:13;;;;;;;11.90;11.40;;;24.90;73.90;;;;;;4952029;29;20820;-72
2022/05/25 07:08:40;;;;;;;11.40;10.90;;;24.70;73.80;;;;;;4952430;29;20467;-72
2022/05/25 07:11:09;;;;;;;11.80;11.30;;;24.90;73.50;;;;;;4951727;29;20453;-73
2022/05/25 07:13:36;;;;;;;11.10;10.60;;;24.90;73.00;;;;;;4952087;29;20629;-73
2022/05/25 07:16:05;;;;;;;11.80;11.40;;;24.60;73.90;;;;;;4951736;29;20467;-72
2022/05/25 07:18:32;;;;;;;12.83;11.93;;;24.70;74.90;;;;;;4951642;29;20488;-72
2022/05/25 07:21:01;;;;;;;12.37;11.57;;;25.00;73.30;;;;;;4952038;29;20460;-72
2022/05/25 07:23:28;;;;;;;11.77;11.30;;;25.70;72.90;;;;;;4952324;29;20951;-72
2022/05/25 07:25:55;;;;;;;12.67;12.07;;;26.30;68.50;;;;;;4951971;29;20512;-73
2022/05/25 07:28:23;;;;;;;12.00;11.57;;;26.80;67.10;;;;;;4963710;28;20483;-73
2022/05/25 07:30:52;;;;;;;11.70;11.30;;;26.80;67.10;;;;;;4971303;28;20507;-73
2022/05/25 07:33:19;;;;;;;11.23;10.73;;;26.70;67.30;;;;;;4971439;28;20934;-72
2022/05/25 07:35:46;;;;;;;12.13;11.63;;;27.20;64.20;;;;;;4971349;28;20460;-73
2022/05/25 07:38:13;;;;;;;12.13;11.53;;;27.10;64.70;;;;;;4971379;28;20506;-72
2022/05/25 07:40:42;;;;;;;11.83;11.43;;;27.10;62.10;;;;;;4971382;28;20464;-73
2022/05/25 07:43:13;;;;;;;12.10;11.70;;;26.90;62.60;;;;;;4971061;28;20954;-73
2022/05/25 07:45:42;;;;;;;11.83;11.33;;;26.50;63.90;;;;;;4971127;28;20553;-72
2022/05/25 07:48:09;;;;;;;13.10;12.50;;;26.40;63.20;;;;;;4971165;28;20507;-72
2022/05/25 07:50:36;;;;;;;12.57;12.07;;;26.30;62.10;;;;;;4971137;28;20443;-73
2022/05/25 07:53:55;;;;;;;12.10;11.60;;;26.60;63.30;;;;;;4970678;28;20891;-72
2022/05/25 07:55:50;;;;;;;11.10;10.70;;;26.60;62.30;;;;;;4970910;28;20440;-72
2022/05/25 07:58:18;;;;;;;12.30;11.90;;;27.10;61.40;;;;;;4971094;28;20463;-73
2022/05/25 08:00:46;;;;;;;12.17;11.67;;;27.30;60.40;;;;;;4971194;28;20954;-72
2022/05/25 08:05:59;;;;;;;12.50;11.90;;;28.20;59.20;;;;;;4941188;28;20510;-73
2022/05/25 08:08:26;;;;;;;12.50;12.00;;;28.20;58.40;;;;;;4974648;28;20817;-73
2022/05/25 08:10:56;;;;;;;11.90;11.40;;;28.30;56.80;;;;;;4974456;28;20447;-72
2022/05/25 08:13:24;;;;;;;12.90;12.30;;;28.10;56.80;;;;;;4974553;28;20459;-72
2022/05/25 08:15:52;;;;;;;12.77;12.17;;;28.50;55.40;;;;;;4974542;28;20452;-72
2022/05/25 08:18:20;;;;;;;12.77;12.07;;;28.30;54.70;;;;;;4974448;28;20456;-72
2022/05/25 08:20:47;;;;;;;12.60;12.00;;;28.20;55.50;;;;;;4974398;28;20523;-73
2022/05/25 08:23:16;;;;;;;12.03;11.53;;;28.60;55.00;;;;;;4974668;28;20872;-72
2022/05/25 08:25:44;;;;;;;12.73;12.03;;;28.10;56.10;;;;;;4974544;28;20961;-73
2022/05/25 08:28:11;;;;;;;12.80;12.10;;;28.40;55.00;;;;;;4974243;28;20487;-72
2022/05/25 08:30:41;;;;;;;11.60;11.20;;;28.60;54.50;;;;;;4974145;28;20466;-73
2022/05/25 08:33:09;;;;;;;12.40;11.80;;;28.40;54.30;;;;;;4974298;28;20463;-73
2022/05/25 08:35:36;;;;;;;12.97;12.20;;;27.70;55.60;;;;;;4974102;28;20985;-73
2022/05/25 08:38:03;;;;;;;12.80;12.20;;;27.40;55.50;;;;;;4973904;28;20459;-72
2022/05/25 08:40:32;;;;;;;12.20;11.70;;;27.80;55.20;;;;;;4973879;28;20582;-73
2022/05/25 08:43:03;;;;;;;12.33;11.63;;;28.50;53.50;;;;;;4974004;28;20460;-73
2022/05/25 08:45:36;;;;;;;11.80;11.40;;;28.30;53.10;;;;;;4973926;28;20967;-72
2022/05/25 08:48:05;;;;;;;13.20;12.53;;;28.20;53.30;;;;;;4973859;28;20454;-72
2022/05/25 08:50:33;;;;;;;12.60;12.10;;;28.60;53.20;;;;;;4973737;28;20448;-73
2022/05/25 08:53:02;;;;;;;12.03;11.53;;;28.40;53.30;;;;;;4973734;28;20459;-73
2022/05/25 08:55:43;;;;;;;11.60;11.20;;;28.70;52.30;;;;;;4973883;28;21126;-73
2022/05/25 08:58:13;;;;;;;11.90;11.50;;;27.70;53.00;;;;;;4973901;28;20498;-72
2022/05/25 09:00:41;;;;;;;11.73;11.20;;;27.00;54.50;;;;;;4973476;28;21301;-73
2022/05/25 09:03:16;;;;;;;11.50;11.10;;;26.70;55.60;;;;;;4973646;28;20518;-72
2022/05/25 09:05:49;;;;;;;13.67;12.70;;;26.20;55.30;;;;;;4973554;28;20554;-73
2022/05/25 09:08:24;;;;;;;13.10;12.20;;;26.50;55.90;;;;;;4973398;28;20459;-73
2022/05/25 09:10:55;;;;;;;12.23;11.73;;;27.30;54.30;;;;;;4973212;28;20487;-73
2022/05/25 09:13:28;;;;;;;11.73;11.23;;;27.60;53.50;;;;;;4973417;28;20622;-72
2022/05/25 09:19:00;;;;;;;11.97;11.53;;;28.00;53.20;;;;;;4948006;28;20804;-73
2022/05/25 09:21:32;;;;;;;11.97;11.47;;;29.10;50.60;;;;;;4973282;28;20451;-73
2022/05/25 09:24:04;;;;;;;11.83;11.33;;;29.20;50.10;;;;;;4973604;28;21000;-72
2022/05/25 09:26:31;;;;;;;11.83;11.43;;;28.50;51.50;;;;;;4972863;28;20483;-73
2022/05/25 09:29:02;;;;;;;11.80;11.30;;;27.60;53.40;;;;;;4973349;28;20495;-76
2022/05/25 09:31:35;;;;;;;12.20;11.40;;;26.30;55.50;;;;;;4973308;28;20455;-76
2022/05/25 09:34:04;;;;;;;11.00;10.60;;;25.40;57.50;;;;;;4972989;28;20469;-74
2022/05/25 09:36:38;;;;;;;11.43;11.03;;;25.10;57.80;;;;;;4973164;28;20894;-73
2022/05/25 09:39:13;;;;;;;11.63;10.73;;;24.30;59.70;;;;;;4972659;28;20483;-73
2022/05/25 09:41:43;;;;;;;10.63;10.07;;;24.10;60.20;;;;;;4973071;28;20451;-73
2022/05/25 09:44:12;;;;;;;11.00;10.60;;;23.80;61.20;;;;;;4973207;28;20464;-72
2022/05/25 09:46:43;;;;;;;10.73;10.33;;;23.40;61.20;;;;;;4972589;28;20460;-73
2022/05/25 09:49:25;;;;;;;11.17;10.67;;;23.30;61.20;;;;;;4972901;28;20514;-73
2022/05/25 09:51:55;;;;;;;10.80;10.40;;;23.10;60.70;;;;;;4972751;28;20455;-72
2022/05/25 09:54:26;;;;;;;10.77;10.37;;;23.30;60.20;;;;;;4972881;28;20447;-72
2022/05/25 09:56:58;;;;;;;10.90;10.50;;;23.20;60.30;;;;;;4972408;28;20448;-72
2022/05/25 09:59:29;;;;;;;10.87;10.47;;;23.30;62.90;;;;;;4972556;28;20594;-73
2022/05/25 10:01:57;;;;;;;11.43;10.83;;;23.70;62.60;;;;;;4972584;28;20475;-72
2022/05/25 10:04:38;;;;;;;11.20;10.77;;;24.70;60.60;;;;;;4972391;28;20455;-73
2022/05/25 10:07:19;;;;;;;12.50;12.00;;;26.50;56.30;;;;;;4972398;28;20459;-73
2022/05/25 10:09:49;;;;;;;11.90;11.20;;;28.10;52.40;;;;;;4972579;28;20575;-73
2022/05/25 10:12:27;;;;;;;11.90;11.10;;;28.20;53.70;;;;;;4972124;28;21024;-72
2022/05/25 10:15:00;;;;;;;11.87;11.43;;;27.60;53.10;;;;;;4972208;28;20459;-73
2022/05/25 10:17:36;;;;;;;12.30;11.90;;;26.50;54.70;;;;;;4972472;28;20510;-72
2022/05/25 10:20:06;;;;;;;12.33;11.73;;;27.20;53.60;;;;;;4972070;28;20490;-73
2022/05/25 10:22:38;;;;;;;12.20;11.80;;;27.00;52.80;;;;;;4972058;28;20547;-73
2022/05/25 10:25:09;;;;;;;12.30;11.80;;;26.70;53.90;;;;;;4971940;28;20452;-72
2022/05/25 10:27:40;;;;;;;12.43;11.60;;;27.20;52.90;;;;;;4971875;28;20492;-73
2022/05/25 10:38:48;;;;;;;12.03;11.50;;;26.90;53.20;;;;;;4966990;28;20742;-74
2022/05/25 10:44:05;;;;;;;12.37;11.77;;;27.40;53.10;;;;;;4971883;28;20495;-74
2022/05/25 10:46:32;;;;;;;12.60;12.20;;;28.10;52.60;;;;;;4971908;28;20448;-73
2022/05/25 10:49:06;;;;;;;11.70;11.20;;;28.90;50.90;;;;;;4971789;28;20452;-73
2022/05/25 10:51:39;;;;;;;12.40;11.70;;;29.20;49.80;;;;;;4971743;28;20853;-83
2022/05/25 10:57:03;;;;;;;13.37;12.00;;;28.20;48.70;;;;;;4971608;28;20487;-73
2022/05/25 10:59:38;;;;;;;12.63;12.03;;;27.50;50.40;;;;;;4971688;28;20459;-74
2022/05/25 11:02:21;;;;;;;12.83;12.20;;;26.10;53.00;;;;;;4971759;28;20503;-73
2022/05/25 11:05:10;;;;;;;12.03;11.53;;;25.20;54.70;;;;;;4971696;28;20974;-73
2022/05/25 11:07:38;;;;;;;11.40;11.00;;;25.10;55.20;;;;;;4971487;28;20558;-73
2022/05/25 11:10:32;;;;;;;11.47;11.07;;;24.70;54.80;;;;;;4971289;28;20602;-73
2022/05/25 11:13:14;;;;;;;12.00;11.53;;;24.30;55.40;;;;;;4971624;28;20456;-72
2022/05/25 11:15:52;;;;;;;11.40;11.00;;;24.10;56.40;;;;;;4971323;28;20466;-73
2022/05/25 11:18:32;;;;;;;11.10;10.77;;;25.60;54.00;;;;;;4971453;28;20745;-74
2022/05/25 11:21:16;;;;;;;11.60;10.90;;;27.10;51.50;;;;;;4971447;28;20558;-76
2022/05/25 11:23:54;;;;;;;12.53;12.03;;;28.10;50.50;;;;;;4971590;28;20526;-76
2022/05/25 11:26:42;;;;;;;11.63;11.23;;;29.00;49.30;;;;;;4970987;28;20896;-75
2022/05/25 11:29:23;;;;;;;12.63;12.13;;;29.20;47.60;;;;;;4971178;28;20483;-75
2022/05/25 11:32:00;;;;;;;12.33;11.73;;;29.50;47.00;;;;;;4971423;28;20460;-74
2022/05/25 11:34:51;;;;;;;11.30;10.83;;;29.60;47.10;;;;;;4971556;28;20455;-74
2022/05/25 11:37:30;;;;;;;12.17;11.67;;;28.80;47.50;;;;;;4971240;28;20946;-74
2022/05/25 11:40:06;;;;;;;11.93;11.43;;;28.50;48.50;;;;;;4971590;28;20484;-75
2022/05/25 11:42:50;;;;;;;11.57;11.13;;;27.70;48.80;;;;;;4973874;28;20454;-76
2022/05/25 11:45:30;;;;;;;12.33;11.73;;;27.50;50.60;;;;;;4975327;28;20506;-78
2022/05/25 11:48:13;;;;;;;12.47;12.00;;;27.10;50.80;;;;;;4975324;28;20457;-76
2022/05/25 11:50:47;;;;;;;10.73;10.23;;;27.20;51.20;;;;;;4975665;28;20459;-78
2022/05/25 11:53:35;;;;;;;12.03;11.50;;;26.70;50.80;;;;;;4975239;28;20969;-76
2022/05/25 11:56:17;;;;;;;10.93;10.10;;;25.90;51.60;;;;;;4975103;28;20459;-75
2022/05/25 11:58:59;;;;;;;11.80;11.10;;;25.40;53.30;;;;;;4975048;28;20542;-73
2022/05/25 12:01:55;;;;;;;;;;;;;;;;;;;;;
2022/05/25 12:05:24;;;;;;;12.93;12.30;;;25.40;54.30;;;;;;4974656;28;20454;-77
2022/05/25 12:08:33;;;;;;;;;;;;;;;;;;;;;
2022/05/25 12:11:25;;;;;;;14.77;14.10;;;30.20;47.60;;;;;;4974653;28;20802;-75
2022/05/25 12:14:34;;;;;;;12.50;12.00;;;31.40;46.00;;;;;;4974526;28;20538;-76
2022/05/25 12:17:56;;;;;;;12.10;11.70;;;32.00;43.50;;;;;;4974496;28;21012;-75
2022/05/25 12:21:03;;;;;;;;;;;;;;;;;;;;;
2022/05/25 12:23:55;;;;;;;11.67;11.17;;;31.80;42.90;;;;;;4974252;28;20447;-75
2022/05/25 12:26:40;;;;;;;;;;;;;;;;;;;;;
2022/05/25 12:29:25;;;;;;;11.50;11.10;;;28.80;48.10;;;;;;4973652;28;20483;-76
2022/05/25 12:32:41;;;;;;;11.53;11.13;;;29.40;46.60;;;;;;4974121;28;21004;-78
2022/05/25 12:35:17;;;;;;;11.10;10.80;;;28.90;45.80;;;;;;4974387;28;20459;-74
2022/05/25 12:38:10;;;;;;;12.23;11.50;;;28.70;46.00;;;;;;4972150;28;20957;-78
2022/05/25 12:40:48;;;;;;;10.63;10.10;;;28.80;45.90;;;;;;4972034;28;20466;-75
2022/05/25 12:43:49;;;;;;;10.70;10.40;;;27.60;46.40;;;;;;4973999;28;20447;-75
2022/05/25 12:49:08;;;;;;;10.30;9.80;;;26.30;49.20;;;;;;4974040;28;21174;-74
2022/05/25 12:51:38;;;;;;;10.80;10.40;;;25.30;50.30;;;;;;4973638;28;20488;-77
2022/05/25 12:54:19;;;;;;;11.60;11.10;;;26.10;50.10;;;;;;4972413;28;20463;-75
2022/05/25 12:56:47;;;;;;;11.63;11.03;;;27.70;47.90;;;;;;4973641;28;20514;-74
2022/05/25 12:59:25;;;;;;;12.30;11.80;;;29.40;46.00;;;;;;4973725;28;20456;-75
2022/05/25 13:02:13;;;;;;;11.90;11.50;;;30.70;43.70;;;;;;4973847;28;20517;-73
2022/05/25 13:04:48;;;;;;;11.60;11.20;;;31.10;42.50;;;;;;4973646;28;20455;-73
2022/05/25 13:07:39;;;;;;;11.93;11.17;;;30.40;43.10;;;;;;4973754;28;20816;-73
2022/05/25 13:10:45;;;;;;;11.00;10.63;;;30.30;43.10;;;;;;4973230;28;20460;-73
2022/05/25 13:13:37;;;;;;;11.43;10.93;;;29.00;44.20;;;;;;4956309;28;20454;-73
2022/05/25 13:16:04;;;;;;;11.00;10.70;;;27.90;46.30;;;;;;4973278;28;20447;-73
2022/05/25 13:18:55;;;;;;;11.20;10.60;;;26.70;48.60;;;;;;4973121;28;20452;-71
2022/05/25 13:21:37;;;;;;;10.43;10.13;;;26.10;49.20;;;;;;4969470;28;20471;-73
2022/05/25 13:24:44;;;;;;;9.90;9.50;;;25.10;50.30;;;;;;4973164;28;20460;-73
2022/05/25 13:27:40;;;;;;;11.10;10.70;;;24.80;51.40;;;;;;4972849;28;21004;-73
2022/05/25 13:30:47;;;;;;;10.57;10.17;;;24.70;51.60;;;;;;4972738;28;20802;-73
2022/05/25 13:33:24;;;;;;;11.53;11.13;;;25.00;51.50;;;;;;4913249;29;20450;-74
2022/05/25 13:35:53;;;;;;;12.47;11.70;;;26.10;50.40;;;;;;4966472;28;20462;-74
2022/05/25 13:38:38;;;;;;;11.63;11.13;;;27.00;48.70;;;;;;4972328;28;20470;-74
2022/05/25 13:41:11;;;;;;;12.60;12.00;;;27.20;48.00;;;;;;4972358;28;20471;-73
2022/05/25 13:43:50;;;;;;;11.40;11.00;;;27.60;48.40;;;;;;4972730;28;20847;-73
2022/05/25 13:46:39;;;;;;;10.90;10.60;;;26.50;48.90;;;;;;4972622;28;20823;-73
2022/05/25 13:49:09;;;;;;;11.37;10.90;;;25.70;49.40;;;;;;4972839;28;20518;-73
2022/05/25 13:51:36;;;;;;;11.50;11.10;;;25.30;50.90;;;;;;4972344;28;21138;-73
2022/05/25 13:54:19;;;;;;;11.20;10.80;;;25.20;51.30;;;;;;4972217;28;20459;-73
2022/05/25 13:56:46;;;;;;;11.90;11.30;;;24.60;51.00;;;;;;4972508;28;20458;-73
2022/05/25 13:59:14;;;;;;;11.00;10.60;;;24.50;51.80;;;;;;4972536;28;20456;-72
2022/05/25 14:01:42;;;;;;;11.10;10.70;;;24.60;51.40;;;;;;4972445;28;20471;-73
2022/05/25 14:04:18;;;;;;;11.33;10.93;;;24.50;52.30;;;;;;4971715;28;20537;-71
2022/05/25 14:06:45;;;;;;;12.00;11.40;;;24.80;52.00;;;;;;4972178;28;20961;-72
2022/05/25 14:11:58;;;;;;;11.30;10.90;;;25.20;50.70;;;;;;4972565;28;20558;-72
2022/05/25 14:14:29;;;;;;;10.90;10.50;;;25.40;50.10;;;;;;4971827;28;20452;-73
2022/05/25 14:16:59;;;;;;;11.57;11.17;;;25.30;50.20;;;;;;4972118;28;20455;-73
2022/05/25 14:19:29;;;;;;;12.10;11.60;;;26.50;49.10;;;;;;4972073;28;20447;-73
2022/05/25 14:21:59;;;;;;;11.60;11.10;;;26.20;48.90;;;;;;4971964;28;20455;-73
2022/05/25 14:24:32;;;;;;;11.20;10.80;;;25.70;49.00;;;;;;4971818;28;20459;-73
2022/05/25 14:27:01;;;;;;;11.47;11.03;;;25.00;50.50;;;;;;4971779;28;20475;-72
2022/05/25 14:29:30;;;;;;;11.70;11.23;;;24.70;51.50;;;;;;4971971;28;20487;-72
2022/05/25 14:32:12;;;;;;;11.80;11.40;;;24.30;51.80;;;;;;4971957;28;20561;-73
2022/05/25 14:34:42;;;;;;;11.70;11.20;;;23.90;53.40;;;;;;4971989;28;20476;-73
2022/05/25 14:37:09;;;;;;;12.60;11.90;;;24.40;54.20;;;;;;4971695;28;20452;-73
2022/05/25 14:39:36;;;;;;;10.93;10.53;;;25.60;51.70;;;;;;4971861;28;20551;-73
2022/05/25 14:42:10;;;;;;;12.00;11.50;;;26.00;49.60;;;;;;4971797;28;20946;-73
2022/05/25 14:44:46;;;;;;;12.07;10.63;;;25.70;49.70;;;;;;4971653;28;20455;-72
2022/05/25 14:47:28;;;;;;;11.20;10.80;;;25.40;51.10;;;;;;4971739;28;20455;-72
2022/05/25 14:50:02;;;;;;;11.23;10.80;;;25.10;51.40;;;;;;4971796;28;20447;-72
2022/05/25 14:52:30;;;;;;;10.23;9.83;;;24.90;51.90;;;;;;4971601;28;20491;-72
2022/05/25 14:55:07;;;;;;;10.90;10.40;;;25.20;52.30;;;;;;4971690;28;20478;-72
2022/05/25 14:57:34;;;;;;;12.53;11.63;;;25.40;51.90;;;;;;4971595;28;20459;-73
2022/05/25 15:00:03;;;;;;;11.60;11.03;;;25.20;52.50;;;;;;4971947;28;20478;-72
2022/05/25 15:02:37;;;;;;;11.67;11.13;;;24.70;51.70;;;;;;4968623;28;20462;-73
2022/05/25 15:05:26;;;;;;;11.33;10.80;;;24.40;52.90;;;;;;4971437;28;20451;-73
2022/05/25 15:07:54;;;;;;;11.60;11.20;;;24.30;53.30;;;;;;4964914;28;20451;-72
2022/05/25 15:10:34;;;;;;;11.53;11.13;;;24.40;53.20;;;;;;4970874;28;20486;-71
2022/05/25 15:13:01;;;;;;;10.47;10.07;;;24.20;53.60;;;;;;4970961;28;20536;-71
2022/05/25 15:18:31;;;;;;;11.17;10.70;;;24.00;54.00;;;;;;4970778;28;20937;-72
2022/05/25 15:21:00;;;;;;;10.67;10.27;;;24.00;53.60;;;;;;4970942;28;20519;-73
2022/05/25 15:23:31;;;;;;;10.43;10.00;;;24.00;54.30;;;;;;4971041;28;20868;-72
2022/05/25 15:26:10;;;;;;;11.30;10.90;;;24.10;54.10;;;;;;4970933;28;20475;-72
2022/05/25 15:28:37;;;;;;;12.00;11.60;;;24.10;54.00;;;;;;4970449;28;20511;-71
2022/05/25 15:31:06;;;;;;;10.20;9.67;;;24.10;54.50;;;;;;4970586;28;20484;-72
2022/05/25 15:33:37;;;;;;;11.30;10.90;;;24.00;54.20;;;;;;4970650;28;20857;-72
2022/05/25 15:36:09;;;;;;;11.03;10.63;;;23.90;54.80;;;;;;4970764;28;20451;-72
2022/05/25 15:38:36;;;;;;;10.83;10.33;;;23.90;54.60;;;;;;4970507;28;20455;-71
2022/05/25 15:41:03;;;;;;;10.60;10.20;;;23.80;54.60;;;;;;4970414;28;20562;-71
2022/05/25 15:43:30;;;;;;;11.57;11.17;;;23.80;54.50;;;;;;4970141;28;20958;-72
2022/05/25 15:45:58;;;;;;;10.37;9.97;;;23.70;55.50;;;;;;4970545;28;20459;-72
2022/05/25 15:48:26;;;;;;;10.37;10.07;;;23.70;55.60;;;;;;4970468;28;20458;-73
2022/05/25 15:50:54;;;;;;;10.77;10.27;;;23.70;55.30;;;;;;4969865;28;20463;-73
2022/05/25 15:53:23;;;;;;;11.13;10.50;;;23.60;55.40;;;;;;4969999;28;20802;-73
2022/05/25 15:55:50;;;;;;;11.80;11.20;;;23.50;55.10;;;;;;4970320;28;20912;-72
2022/05/25 15:58:17;;;;;;;11.30;10.80;;;23.40;55.20;;;;;;4970357;28;20456;-72
2022/05/25 16:00:46;;;;;;;10.10;9.80;;;23.10;55.70;;;;;;4970523;28;20456;-73
2022/05/25 16:03:17;;;;;;;10.33;9.80;;;23.10;56.20;;;;;;4970688;28;20547;-72
2022/05/25 16:05:45;;;;;;;12.13;11.40;;;22.90;56.00;;;;;;4970239;28;20552;-72
2022/05/25 16:10:58;;;;;;;10.60;10.00;;;22.80;57.30;;;;;;4970707;28;20435;-72